Terminal Aerodrome Forecast
Issued by NWS

Current Version | Previous Version | Graphics & Text | Print | Product List | Glossary On
Versions: 1 2 3 4 5 6 7 8 9 10 11 12 13 14 15 16 17 18 19
677
FTUS41 KILN 180546
TAFLCK
TAF
KLCK 180546Z 1806/1906 25007KT P6SM VCSH FEW005 OVC012
     FM180700 29005KT P6SM OVC012
     FM181500 16009KT P6SM FEW015 SCT250
     FM182300 11005KT P6SM SCT250=

USA.gov is the U.S. government's official web portal to all federal, state and local government web resources and services.